Time;durP1;ratioP1;P1;durP2;ratioP2;P2;SDS_P1;SDS_P2;PMS_P1;PMS_P2;Temp;Humidity;BMP_temperature;BMP_pressure;BME280_temperature;BME280_humidity;BME280_pressure;Samples;Min_cycle;Max_cycle;Signal;HPM_P1;HPM_P2
2023/04/01 00:02:00;;;;;;;5.95;1.80;;;21.80;99.90;;;;;;5031773;28;20493;-67
2023/04/01 00:04:27;;;;;;;3.45;1.20;;;21.90;99.90;;;;;;5022835;28;20029;-68
2023/04/01 00:06:55;;;;;;;2.05;0.80;;;21.90;99.90;;;;;;5033790;28;20084;-67
2023/04/01 00:09:22;;;;;;;3.60;0.63;;;21.90;99.90;;;;;;5025322;28;20113;-67
2023/04/01 00:11:49;;;;;;;1.95;0.80;;;21.70;99.90;;;;;;5025481;28;20034;-67
2023/04/01 00:14:17;;;;;;;3.35;0.82;;;21.70;99.90;;;;;;5028750;28;20045;-67
2023/04/01 00:16:44;;;;;;;1.95;0.75;;;21.70;99.90;;;;;;5029913;28;20363;-68
2023/04/01 00:19:12;;;;;;;2.33;1.00;;;21.40;99.90;;;;;;5029826;28;20121;-67
2023/04/01 00:21:40;;;;;;;3.90;0.90;;;21.30;99.90;;;;;;5027804;28;20026;-67
2023/04/01 00:24:07;;;;;;;2.65;0.57;;;21.30;99.90;;;;;;5026723;28;20021;-68
2023/04/01 00:26:35;;;;;;;2.65;0.95;;;21.40;99.90;;;;;;5027676;28;20033;-70
2023/04/01 00:29:02;;;;;;;2.83;1.00;;;21.40;99.90;;;;;;5026700;28;20052;-68
2023/04/01 00:31:30;;;;;;;2.20;0.90;;;21.40;99.90;;;;;;5028546;28;20796;-67
2023/04/01 00:33:57;;;;;;;1.58;0.90;;;21.40;99.90;;;;;;5028258;28;20022;-69
2023/04/01 00:36:25;;;;;;;1.80;0.95;;;21.40;99.90;;;;;;5028102;28;20029;-70
2023/04/01 00:38:52;;;;;;;4.30;0.90;;;21.40;99.90;;;;;;5022940;28;20029;-70
2023/04/01 00:41:21;;;;;;;2.08;0.80;;;21.30;99.90;;;;;;5030087;28;20482;-70
2023/04/01 00:43:51;;;;;;;3.05;0.85;;;21.50;99.90;;;;;;5028832;28;20029;-67
2023/04/01 00:46:19;;;;;;;1.73;0.70;;;21.40;99.90;;;;;;5027382;28;20025;-67
2023/04/01 00:48:50;;;;;;;7.43;1.88;;;21.40;99.90;;;;;;5030214;28;20014;-66
2023/04/01 00:51:26;;;;;;;4.60;0.93;;;21.70;99.90;;;;;;5018597;28;20029;-66
2023/04/01 00:53:56;;;;;;;6.68;1.55;;;21.90;99.90;;;;;;5029518;28;20084;-68
2023/04/01 00:56:32;;;;;;;5.68;0.95;;;22.30;99.90;;;;;;5020101;28;20493;-68
2023/04/01 00:59:08;;;;;;;6.38;1.05;;;22.20;99.90;;;;;;5028616;28;20470;-67
2023/04/01 01:01:37;;;;;;;3.15;0.90;;;22.00;99.90;;;;;;5028694;28;20029;-69
2023/04/01 01:04:05;;;;;;;4.07;0.77;;;21.90;99.90;;;;;;5027344;28;20025;-68
2023/04/01 01:06:55;;;;;;;4.30;1.00;;;21.80;99.90;;;;;;5084469;27;20821;-67
2023/04/01 01:09:38;;;;;;;5.30;1.33;;;21.80;99.90;;;;;;5078247;28;20492;-65
2023/04/01 01:12:08;;;;;;;2.60;0.80;;;21.70;99.90;;;;;;5083528;28;20048;-69
2023/04/01 01:15:15;;;;;;;3.90;0.80;;;21.50;99.90;;;;;;5084172;28;20013;-68
2023/04/01 01:18:06;;;;;;;3.13;0.85;;;21.40;99.90;;;;;;5094066;28;20024;-67
2023/04/01 01:20:54;;;;;;;4.85;1.10;;;21.40;99.90;;;;;;5061898;28;20040;-68
2023/04/01 01:23:43;;;;;;;2.15;0.68;;;21.40;99.90;;;;;;5079614;28;20123;-69
2023/04/01 01:26:24;;;;;;;1.35;0.55;;;21.40;99.90;;;;;;5084809;28;20040;-68
2023/04/01 01:29:00;;;;;;;3.80;0.98;;;21.50;99.90;;;;;;5071763;28;20397;-69
2023/04/01 01:31:47;;;;;;;1.60;0.65;;;21.30;99.90;;;;;;5066402;28;20035;-69
2023/04/01 01:34:53;;;;;;;3.28;0.77;;;21.20;99.90;;;;;;5078392;28;20122;-69
2023/04/01 01:37:24;;;;;;;1.85;0.55;;;21.10;99.90;;;;;;5080627;28;20017;-68
2023/04/01 01:40:06;;;;;;;2.05;0.70;;;20.90;99.90;;;;;;5071489;28;20450;-70
2023/04/01 01:42:38;;;;;;;2.50;0.60;;;20.80;99.90;;;;;;5077611;28;20540;-70
2023/04/01 01:45:07;;;;;;;4.95;1.40;;;20.90;99.90;;;;;;5079886;28;20035;-67
2023/04/01 01:47:36;;;;;;;3.13;0.70;;;20.80;99.90;;;;;;5088753;28;20038;-67
2023/04/01 01:50:05;;;;;;;3.85;0.90;;;20.70;99.90;;;;;;5080446;28;20017;-66
2023/04/01 01:52:32;;;;;;;3.35;0.90;;;20.50;99.90;;;;;;5087062;28;20029;-66
2023/04/01 01:55:00;;;;;;;1.92;0.90;;;20.40;99.90;;;;;;5074859;28;20028;-67
2023/04/01 01:57:31;;;;;;;3.95;0.82;;;20.60;99.90;;;;;;5079770;28;20366;-64
2023/04/01 02:00:13;;;;;;;2.95;0.80;;;20.40;99.90;;;;;;5099686;28;20028;-66
2023/04/01 02:02:42;;;;;;;2.25;0.98;;;20.20;99.90;;;;;;5066687;28;20063;-65
2023/04/01 02:05:15;;;;;;;5.35;0.90;;;20.20;99.90;;;;;;5064321;28;20048;-61
2023/04/01 02:07:47;;;;;;;2.65;0.70;;;20.10;99.90;;;;;;5070008;28;20032;-63
2023/04/01 02:10:15;;;;;;;5.60;0.98;;;20.20;99.90;;;;;;5063698;28;20123;-64
2023/04/01 02:12:47;;;;;;;3.72;0.82;;;20.20;99.90;;;;;;5064789;28;20020;-64
2023/04/01 02:15:16;;;;;;;3.17;0.98;;;20.10;99.90;;;;;;5065980;28;20482;-66
2023/04/01 02:17:48;;;;;;;4.10;0.90;;;20.10;99.90;;;;;;5058133;28;20082;-65
2023/04/01 02:20:20;;;;;;;3.53;1.10;;;20.20;99.90;;;;;;5053153;28;20025;-65
2023/04/01 02:22:58;;;;;;;4.15;1.80;;;20.30;99.90;;;;;;5052606;28;20079;-64
2023/04/01 02:25:34;;;;;;;4.53;1.45;;;20.30;99.90;;;;;;5055821;28;20040;-64
2023/04/01 02:28:04;;;;;;;5.68;1.17;;;20.10;99.90;;;;;;5057630;28;20028;-66
2023/04/01 02:30:34;;;;;;;6.57;0.88;;;20.00;99.90;;;;;;5054644;28;20111;-65
2023/04/01 02:33:04;;;;;;;2.75;0.98;;;20.30;99.90;;;;;;5055487;28;20501;-66
2023/04/01 02:35:33;;;;;;;3.25;0.82;;;20.40;99.90;;;;;;5054221;28;20048;-64
2023/04/01 02:38:01;;;;;;;2.75;0.95;;;20.40;99.90;;;;;;5055664;28;20071;-66
2023/04/01 02:40:28;;;;;;;4.30;1.10;;;20.60;99.90;;;;;;5057366;28;20516;-64
2023/04/01 02:42:56;;;;;;;3.58;1.08;;;20.70;99.90;;;;;;5055488;28;20025;-66
2023/04/01 02:45:23;;;;;;;4.75;0.90;;;20.70;99.90;;;;;;5067782;28;20032;-65
2023/04/01 02:47:51;;;;;;;3.65;0.82;;;20.80;99.90;;;;;;5053767;28;20833;-66
2023/04/01 02:50:18;;;;;;;4.72;2.03;;;20.70;99.90;;;;;;5056040;28;20036;-69
2023/04/01 02:52:45;;;;;;;3.95;0.77;;;20.40;99.90;;;;;;5059516;28;20535;-69
2023/04/01 02:55:13;;;;;;;3.60;0.63;;;20.50;99.90;;;;;;5063297;28;20021;-68
2023/04/01 02:57:40;;;;;;;3.45;0.98;;;20.40;99.90;;;;;;5055511;28;20032;-65
2023/04/01 03:00:11;;;;;;;4.22;1.08;;;20.20;99.90;;;;;;5055924;28;20780;-66
2023/04/01 03:02:39;;;;;;;5.88;1.48;;;20.30;99.90;;;;;;5059546;28;20051;-66
2023/04/01 03:05:07;;;;;;;7.15;1.13;;;19.50;99.90;;;;;;5058759;28;20052;-66
2023/04/01 03:07:34;;;;;;;6.15;1.10;;;19.20;99.90;;;;;;5059434;28;20033;-66
2023/04/01 03:10:02;;;;;;;3.40;0.90;;;19.00;99.90;;;;;;5058872;28;20035;-66
2023/04/01 03:12:29;;;;;;;6.65;0.80;;;19.00;99.90;;;;;;5067558;28;20021;-67
2023/04/01 03:14:57;;;;;;;2.97;1.00;;;18.90;99.90;;;;;;5056071;28;20057;-67
2023/04/01 03:17:25;;;;;;;6.90;1.35;;;18.50;99.90;;;;;;5055503;28;20021;-63
2023/04/01 03:20:02;;;;;;;4.18;0.90;;;18.40;99.90;;;;;;5058065;28;20013;-64
2023/04/01 03:22:29;;;;;;;3.92;0.90;;;18.20;99.90;;;;;;5059856;28;20498;-66
2023/04/01 03:24:57;;;;;;;8.85;1.25;;;18.10;99.90;;;;;;5060815;28;20071;-64
2023/04/01 03:27:24;;;;;;;2.10;0.98;;;18.00;99.90;;;;;;5050787;28;20032;-64
2023/04/01 03:29:52;;;;;;;3.75;1.10;;;17.90;99.90;;;;;;5055420;28;20025;-64
2023/04/01 03:32:19;;;;;;;4.15;1.10;;;17.70;99.90;;;;;;5055086;28;20031;-66
2023/04/01 03:34:47;;;;;;;3.15;1.10;;;17.60;99.90;;;;;;5049995;28;20029;-67
2023/04/01 03:37:14;;;;;;;6.15;1.35;;;17.60;99.90;;;;;;5052894;28;20020;-67
2023/04/01 03:39:42;;;;;;;9.43;1.15;;;17.60;99.90;;;;;;5055762;28;20088;-65
2023/04/01 03:42:09;;;;;;;5.80;0.98;;;17.40;99.90;;;;;;5057776;28;20017;-67
2023/04/01 03:44:37;;;;;;;4.72;1.30;;;17.40;99.90;;;;;;5054308;28;20046;-65
2023/04/01 03:47:05;;;;;;;8.77;1.27;;;17.40;99.90;;;;;;5057923;28;20031;-64
2023/04/01 03:49:33;;;;;;;4.57;1.20;;;17.30;99.90;;;;;;5049916;28;20098;-63
2023/04/01 03:52:00;;;;;;;9.15;1.42;;;17.30;99.90;;;;;;5048007;28;20575;-64
2023/04/01 03:54:28;;;;;;;10.57;1.38;;;17.20;99.90;;;;;;5057648;28;20064;-62
2023/04/01 03:56:57;;;;;;;9.25;1.35;;;17.20;99.90;;;;;;5056935;28;20021;-64
2023/04/01 03:59:25;;;;;;;4.95;1.45;;;17.30;99.90;;;;;;5056376;28;20037;-64
2023/04/01 04:01:52;;;;;;;7.78;1.85;;;17.30;99.90;;;;;;5049915;28;20028;-62
2023/04/01 04:04:20;;;;;;;4.60;1.33;;;17.30;99.90;;;;;;5058671;28;20029;-61
2023/04/01 04:06:47;;;;;;;3.72;1.50;;;17.30;99.90;;;;;;5066924;28;20548;-62
2023/04/01 04:09:15;;;;;;;6.55;1.23;;;17.20;99.90;;;;;;5050802;28;20031;-61
2023/04/01 04:11:42;;;;;;;4.97;1.58;;;17.20;99.90;;;;;;5045353;28;20493;-62
2023/04/01 04:14:09;;;;;;;5.45;1.83;;;17.30;99.90;;;;;;5074972;28;20071;-61
2023/04/01 04:16:37;;;;;;;6.72;1.50;;;17.30;99.90;;;;;;5064522;28;20424;-61
2023/04/01 04:19:05;;;;;;;8.48;1.98;;;17.40;99.90;;;;;;5054082;28;20036;-61
2023/04/01 04:21:33;;;;;;;5.20;1.40;;;17.50;99.90;;;;;;5054103;28;20055;-61
2023/04/01 04:24:02;;;;;;;4.93;1.42;;;17.60;99.90;;;;;;5062146;28;20056;-62
2023/04/01 04:26:29;;;;;;;5.68;1.20;;;17.70;99.90;;;;;;5073122;28;20044;-61
2023/04/01 04:28:57;;;;;;;5.97;0.90;;;17.90;99.90;;;;;;5050132;28;20029;-61
2023/04/01 04:31:26;;;;;;;3.22;1.20;;;18.10;99.90;;;;;;5059376;28;20099;-61
2023/04/01 04:33:54;;;;;;;6.55;1.45;;;18.40;99.90;;;;;;5064342;28;20025;-63
2023/04/01 04:36:22;;;;;;;4.15;1.10;;;18.70;99.90;;;;;;5059976;28;20033;-62
2023/04/01 04:38:49;;;;;;;4.50;1.30;;;18.80;99.90;;;;;;5053416;28;20025;-62
2023/04/01 04:41:19;;;;;;;3.03;1.15;;;18.90;99.90;;;;;;5049116;28;20119;-61
2023/04/01 04:43:55;;;;;;;4.97;0.95;;;19.00;99.90;;;;;;5051544;28;20106;-61
2023/04/01 04:46:23;;;;;;;4.20;0.98;;;19.30;99.90;;;;;;5052811;28;20814;-61
2023/04/01 04:48:50;;;;;;;5.07;1.50;;;19.40;99.90;;;;;;5061911;28;20032;-61
2023/04/01 04:51:20;;;;;;;3.10;1.17;;;19.50;99.90;;;;;;5058582;28;20440;-61
2023/04/01 04:53:48;;;;;;;2.83;0.98;;;19.60;99.90;;;;;;5060737;28;20033;-61
2023/04/01 04:56:19;;;;;;;2.17;1.00;;;19.60;99.90;;;;;;5067304;28;20021;-61
2023/04/01 04:58:47;;;;;;;1.40;0.80;;;19.60;99.90;;;;;;5052882;28;20066;-61
2023/04/01 05:01:16;;;;;;;5.05;1.33;;;19.70;99.90;;;;;;5052464;28;20072;-61
2023/04/01 05:03:44;;;;;;;7.75;1.00;;;19.80;99.90;;;;;;5054214;28;20497;-61
2023/04/01 05:06:14;;;;;;;5.38;1.20;;;19.70;99.90;;;;;;5056572;28;20053;-61
2023/04/01 05:08:42;;;;;;;5.60;1.17;;;19.70;99.90;;;;;;5052154;28;20025;-61
2023/04/01 05:11:16;;;;;;;3.88;1.30;;;19.60;99.90;;;;;;5048967;28;20033;-62
2023/04/01 05:13:44;;;;;;;3.25;0.77;;;19.70;99.90;;;;;;5051931;28;20060;-61
2023/04/01 05:16:14;;;;;;;2.60;1.15;;;19.70;99.90;;;;;;5046764;28;20032;-62
2023/04/01 05:18:42;;;;;;;4.47;1.95;;;19.60;99.90;;;;;;5057563;28;20488;-62
2023/04/01 05:21:12;;;;;;;4.53;1.10;;;19.30;99.90;;;;;;5062710;28;20033;-61
2023/04/01 05:23:39;;;;;;;4.25;1.35;;;19.10;99.90;;;;;;5047656;28;20404;-61
2023/04/01 05:26:10;;;;;;;3.05;1.20;;;19.00;99.90;;;;;;5059107;28;20060;-61
2023/04/01 05:28:38;;;;;;;6.00;1.98;;;19.00;99.90;;;;;;5057157;28;20058;-61
2023/04/01 05:31:06;;;;;;;6.57;1.42;;;18.90;99.90;;;;;;5055252;28;20433;-61
2023/04/01 05:33:34;;;;;;;3.03;1.30;;;18.80;99.90;;;;;;5045554;28;20057;-61
2023/04/01 05:36:13;;;;;;;3.67;1.40;;;18.80;99.90;;;;;;5060558;28;20104;-62
2023/04/01 05:38:42;;;;;;;3.40;1.70;;;18.80;99.90;;;;;;5047208;28;20040;-61
2023/04/01 05:41:09;;;;;;;4.95;1.58;;;19.00;99.90;;;;;;5050807;28;20026;-62
2023/04/01 05:43:37;;;;;;;7.72;2.65;;;19.00;99.90;;;;;;5044929;28;20057;-61
2023/04/01 05:46:05;;;;;;;3.67;1.20;;;19.00;99.90;;;;;;5049025;28;20037;-62
2023/04/01 05:48:37;;;;;;;5.97;1.40;;;19.10;99.90;;;;;;5044986;28;20523;-61
2023/04/01 05:51:05;;;;;;;4.05;1.30;;;19.20;99.90;;;;;;5044659;28;20029;-63
2023/04/01 05:53:32;;;;;;;3.60;1.20;;;19.10;99.90;;;;;;5057133;28;20024;-63
2023/04/01 05:56:04;;;;;;;2.92;1.17;;;19.00;99.90;;;;;;5063484;28;20028;-62
2023/04/01 05:58:31;;;;;;;5.88;1.30;;;19.00;99.90;;;;;;5055460;28;20044;-62
2023/04/01 06:01:09;;;;;;;4.82;1.02;;;18.80;99.90;;;;;;5061637;28;20025;-62
2023/04/01 06:03:36;;;;;;;7.57;1.38;;;18.70;99.90;;;;;;5058651;28;20107;-62
2023/04/01 06:06:04;;;;;;;4.80;1.25;;;18.60;99.90;;;;;;5057525;28;20049;-63
2023/04/01 06:08:32;;;;;;;1.65;0.90;;;18.60;99.90;;;;;;5051332;28;20033;-63
2023/04/01 06:11:22;;;;;;;6.30;1.60;;;18.60;99.90;;;;;;5071637;28;20035;-61
2023/04/01 06:14:30;;;;;;;5.22;1.17;;;18.50;99.90;;;;;;5068471;28;20025;-62
2023/04/01 06:17:18;;;;;;;4.80;1.17;;;18.40;99.90;;;;;;5063141;28;20040;-62
2023/04/01 06:20:47;;;;;;;4.70;1.30;;;18.30;99.90;;;;;;5052350;28;20021;-62
2023/04/01 06:23:41;;;;;;;5.18;1.08;;;18.20;99.90;;;;;;4978172;28;20534;-61
2023/04/01 06:26:27;;;;;;;5.95;1.73;;;18.10;99.90;;;;;;5065342;28;20101;-62
2023/04/01 06:29:18;;;;;;;5.72;1.45;;;18.10;99.90;;;;;;5055574;28;20032;-61
2023/04/01 06:32:07;;;;;;;6.07;1.30;;;18.10;99.90;;;;;;5066459;28;20035;-61
2023/04/01 06:34:51;;;;;;;8.60;1.35;;;18.10;99.90;;;;;;5063942;28;20036;-61
2023/04/01 06:37:40;;;;;;;3.58;1.00;;;18.10;99.90;;;;;;5059944;28;20039;-61
2023/04/01 06:40:37;;;;;;;4.82;1.67;;;18.20;99.90;;;;;;5066625;28;20035;-61
2023/04/01 06:43:14;;;;;;;9.40;1.20;;;18.20;99.90;;;;;;5071099;28;20489;-61
2023/04/01 06:46:00;;;;;;;5.65;1.25;;;18.20;99.90;;;;;;5054568;28;20558;-61
2023/04/01 06:49:00;;;;;;;8.68;1.30;;;18.20;99.90;;;;;;5063768;28;20040;-60
2023/04/01 06:51:57;;;;;;;5.35;1.60;;;18.20;99.90;;;;;;5064842;28;20039;-61
2023/04/01 06:54:31;;;;;;;6.05;1.35;;;18.20;99.90;;;;;;5061552;28;20454;-61
2023/04/01 06:57:19;;;;;;;2.85;1.00;;;18.20;99.90;;;;;;5064084;28;20082;-60
2023/04/01 06:59:48;;;;;;;4.43;2.08;;;18.20;99.90;;;;;;5061686;28;20532;-60
2023/04/01 07:03:04;;;;;;;3.25;0.90;;;18.20;99.90;;;;;;5057420;28;20055;-60
2023/04/01 07:05:33;;;;;;;7.85;1.77;;;18.10;99.90;;;;;;5032902;28;20056;-60
2023/04/01 07:08:05;;;;;;;5.43;2.00;;;18.10;99.90;;;;;;5057310;28;20555;-60
2023/04/01 07:10:42;;;;;;;5.90;1.10;;;18.10;99.90;;;;;;5054551;28;20115;-60
2023/04/01 07:13:29;;;;;;;8.95;1.48;;;18.10;99.90;;;;;;5054104;28;20531;-60
2023/04/01 07:16:09;;;;;;;4.63;1.38;;;18.00;99.90;;;;;;5056074;28;20219;-60
2023/04/01 07:18:45;;;;;;;3.67;1.35;;;18.00;99.90;;;;;;5065255;28;20027;-59
2023/04/01 07:21:54;;;;;;;2.55;0.95;;;18.00;99.90;;;;;;5057050;28;20190;-59
2023/04/01 07:24:52;;;;;;;2.63;1.13;;;17.90;99.90;;;;;;4990227;28;20064;-59
2023/04/01 07:27:19;;;;;;;5.47;1.25;;;17.90;99.90;;;;;;5043155;28;20128;-59
2023/04/01 07:29:47;;;;;;;5.40;1.05;;;17.90;99.90;;;;;;5049837;28;20036;-59
2023/04/01 07:32:43;;;;;;;4.90;1.20;;;17.80;99.90;;;;;;5070738;28;20099;-59
2023/04/01 07:35:25;;;;;;;4.93;1.50;;;17.80;99.90;;;;;;5034405;28;20037;-61
2023/04/01 07:38:41;;;;;;;17.00;8.85;;;17.80;99.90;;;;;;5053517;28;20021;-58
2023/04/01 07:41:25;;;;;;;6.72;3.20;;;17.80;99.90;;;;;;5052004;28;20068;-60
2023/04/01 07:44:20;;;;;;;6.80;3.38;;;17.70;99.90;;;;;;5069344;28;20027;-60
2023/04/01 07:46:47;;;;;;;;;;;17.70;99.90;;;;;;5050338;28;20106;-60
2023/04/01 07:49:41;;;;;;;6.35;2.35;;;17.70;99.90;;;;;;5048801;28;19915;-60
2023/04/01 07:52:54;;;;;;;3.38;1.63;;;17.70;99.90;;;;;;5049982;28;20037;-60
2023/04/01 07:55:44;;;;;;;5.70;1.85;;;17.70;99.90;;;;;;5019468;28;20033;-60
2023/04/01 07:58:35;;;;;;;8.63;3.15;;;17.60;99.90;;;;;;5059010;28;20068;-60
2023/04/01 08:01:39;;;;;;;14.50;6.13;;;17.60;99.90;;;;;;5068621;28;20032;-60
2023/04/01 08:04:18;;;;;;;31.38;16.50;;;17.50;99.90;;;;;;5068439;28;20025;-60
2023/04/01 08:07:07;;;;;;;35.25;14.18;;;17.50;99.90;;;;;;5068353;28;20123;-60
2023/04/01 08:10:02;;;;;;;32.65;13.85;;;17.40;99.90;;;;;;5058964;28;20092;-60
2023/04/01 08:12:41;;;;;;;33.28;16.77;;;17.40;99.90;;;;;;5060103;28;20025;-60
2023/04/01 08:15:27;;;;;;;55.20;29.73;;;17.40;99.90;;;;;;5046413;28;20075;-60
2023/04/01 08:18:06;;;;;;;31.38;17.02;;;17.40;99.90;;;;;;5050564;28;20025;-61
2023/04/01 08:21:01;;;;;;;21.35;9.10;;;17.40;99.90;;;;;;5051370;28;20035;-60
2023/04/01 08:23:44;;;;;;;3.63;1.40;;;17.40;99.90;;;;;;5050040;28;20021;-60
2023/04/01 08:26:17;;;;;;;4.90;1.15;;;17.40;99.90;;;;;;5048607;28;20075;-60
2023/04/01 08:29:28;;;;;;;3.97;0.88;;;17.40;99.90;;;;;;5049869;28;20120;-60
2023/04/01 08:31:58;;;;;;;2.53;0.80;;;17.40;99.90;;;;;;5035851;28;20041;-60
2023/04/01 08:34:44;;;;;;;5.50;1.10;;;17.40;99.90;;;;;;5050118;28;20029;-60
2023/04/01 08:37:30;;;;;;;6.22;1.55;;;17.30;99.90;;;;;;5069096;28;20032;-61
2023/04/01 08:40:23;;;;;;;5.75;1.10;;;17.40;99.90;;;;;;5069277;28;20032;-61
2023/04/01 08:43:08;;;;;;;8.02;1.63;;;17.40;99.90;;;;;;5070207;28;20461;-60
2023/04/01 08:45:46;;;;;;;5.55;1.33;;;17.30;99.90;;;;;;5063413;28;20401;-60
2023/04/01 08:48:36;;;;;;;5.03;1.30;;;17.30;99.90;;;;;;5049913;28;20063;-60
2023/04/01 08:51:28;;;;;;;3.25;1.27;;;17.30;99.90;;;;;;5048333;28;20103;-59
2023/04/01 08:54:22;;;;;;;6.10;1.90;;;17.30;99.90;;;;;;5049572;28;20381;-60
2023/04/01 08:57:50;;;;;;;6.80;1.40;;;17.30;99.90;;;;;;5050098;28;20036;-60
2023/04/01 09:00:38;;;;;;;6.13;1.40;;;17.30;99.90;;;;;;4949259;28;20523;-60
2023/04/01 09:03:37;;;;;;;4.88;1.17;;;17.40;99.90;;;;;;4968531;28;20031;-60
2023/04/01 09:06:22;;;;;;;6.43;2.10;;;17.40;99.90;;;;;;5036690;28;20044;-60
2023/04/01 09:08:50;;;;;;;5.78;1.15;;;17.30;99.90;;;;;;5058154;28;20393;-60
2023/04/01 09:11:32;;;;;;;3.63;1.00;;;17.30;99.90;;;;;;5068610;28;20056;-60
2023/04/01 09:14:12;;;;;;;3.97;0.98;;;17.30;99.90;;;;;;5069396;28;20534;-60
2023/04/01 09:17:00;;;;;;;3.47;0.85;;;17.30;99.90;;;;;;5065324;28;20029;-60
2023/04/01 09:19:43;;;;;;;5.72;1.27;;;17.20;99.90;;;;;;5050575;28;20033;-60
2023/04/01 09:22:25;;;;;;;2.78;0.85;;;17.10;99.90;;;;;;5049262;28;20031;-60
2023/04/01 09:25:23;;;;;;;5.38;1.20;;;17.10;99.90;;;;;;5049125;28;20033;-60
2023/04/01 09:28:09;;;;;;;9.20;1.48;;;17.10;99.90;;;;;;5052772;28;20028;-60
2023/04/01 09:30:55;;;;;;;4.78;1.00;;;17.00;99.90;;;;;;5052277;28;20447;-61
2023/04/01 09:34:06;;;;;;;3.40;1.25;;;16.90;99.90;;;;;;5053313;28;20505;-65
2023/04/01 09:36:45;;;;;;;5.68;1.92;;;16.90;99.90;;;;;;5050031;28;20047;-61
2023/04/01 09:39:25;;;;;;;4.18;0.98;;;16.90;99.90;;;;;;5051833;28;20029;-60
2023/04/01 09:42:02;;;;;;;4.18;1.17;;;16.80;99.90;;;;;;5057305;28;20111;-61
2023/04/01 09:44:37;;;;;;;8.35;1.42;;;16.80;99.90;;;;;;5064523;28;20074;-60
2023/04/01 09:47:17;;;;;;;2.53;1.05;;;16.80;99.90;;;;;;5051478;28;20500;-60
2023/04/01 09:49:56;;;;;;;6.88;0.90;;;16.80;99.90;;;;;;5061758;28;20024;-60
2023/04/01 09:52:59;;;;;;;7.43;1.42;;;16.70;99.90;;;;;;5062603;28;20032;-60
2023/04/01 09:55:35;;;;;;;12.10;1.42;;;16.70;99.90;;;;;;4974188;28;20038;-59
2023/04/01 09:58:29;;;;;;;8.90;1.33;;;16.70;99.90;;;;;;5041519;28;20044;-60
2023/04/01 10:01:20;;;;;;;14.43;1.80;;;16.70;99.90;;;;;;5059732;28;20016;-59
2023/04/01 10:04:12;;;;;;;9.50;1.23;;;16.70;99.90;;;;;;5062059;28;20436;-59
2023/04/01 10:06:52;;;;;;;12.77;2.42;;;16.80;99.90;;;;;;5056312;28;20116;-61
2023/04/01 10:09:42;;;;;;;8.27;2.17;;;16.70;99.90;;;;;;5056544;28;20017;-60
2023/04/01 10:12:19;;;;;;;9.60;2.13;;;16.70;99.90;;;;;;5024277;28;20041;-61
2023/04/01 10:15:00;;;;;;;14.63;1.67;;;16.70;99.90;;;;;;5061886;28;20029;-61
2023/04/01 10:18:04;;;;;;;5.57;1.25;;;16.80;99.90;;;;;;5056748;28;20067;-61
2023/04/01 10:20:55;;;;;;;3.58;1.23;;;16.70;99.90;;;;;;5063245;28;20037;-60
2023/04/01 10:23:22;;;;;;;9.48;1.30;;;16.70;99.90;;;;;;5042026;28;20047;-60
2023/04/01 10:26:26;;;;;;;4.28;1.25;;;16.70;99.90;;;;;;5053576;28;20076;-60
2023/04/01 10:29:24;;;;;;;7.68;1.58;;;16.70;99.90;;;;;;5063603;28;20139;-61
2023/04/01 10:32:10;;;;;;;3.80;1.08;;;16.70;99.90;;;;;;5064094;28;20040;-60
2023/04/01 10:35:00;;;;;;;6.38;1.17;;;16.60;99.90;;;;;;5055179;28;20458;-60
2023/04/01 10:38:02;;;;;;;5.65;1.42;;;16.60;99.90;;;;;;5049679;28;20024;-60
2023/04/01 10:40:39;;;;;;;8.65;1.88;;;16.60;99.90;;;;;;5002485;28;20038;-60
2023/04/01 10:43:19;;;;;;;6.75;1.70;;;16.50;99.90;;;;;;5058008;28;20032;-59
2023/04/01 10:46:09;;;;;;;3.13;1.13;;;16.50;99.90;;;;;;5050688;28;20131;-60
2023/04/01 10:49:11;;;;;;;5.20;1.42;;;16.50;99.90;;;;;;5049707;28;20027;-59
2023/04/01 10:51:41;;;;;;;5.03;1.00;;;16.50;99.90;;;;;;5052789;28;20029;-61
2023/04/01 10:54:18;;;;;;;4.35;1.25;;;16.50;99.90;;;;;;5066170;28;20493;-59
2023/04/01 10:57:00;;;;;;;4.00;1.13;;;16.50;99.90;;;;;;5054744;28;20036;-59
2023/04/01 10:59:43;;;;;;;4.18;2.22;;;16.50;99.90;;;;;;5058870;28;20029;-60
2023/04/01 11:02:29;;;;;;;3.47;1.02;;;16.40;99.90;;;;;;5052382;28;20078;-60
2023/04/01 11:05:26;;;;;;;6.00;1.85;;;16.30;99.90;;;;;;5054152;28;20045;-60
2023/04/01 11:08:09;;;;;;;6.80;1.70;;;16.30;99.90;;;;;;5059427;28;20028;-62
2023/04/01 11:11:14;;;;;;;5.65;1.58;;;16.10;99.90;;;;;;5054589;28;20020;-59
2023/04/01 11:14:14;;;;;;;6.67;2.00;;;16.00;99.90;;;;;;5057244;28;20029;-59
2023/04/01 11:17:06;;;;;;;4.70;1.27;;;15.80;99.90;;;;;;5055039;28;20289;-60
2023/04/01 11:20:12;;;;;;;12.15;1.92;;;15.70;99.90;;;;;;5058259;28;20063;-60
2023/04/01 11:23:06;;;;;;;7.28;2.17;;;15.60;99.90;;;;;;5049496;28;20029;-60
2023/04/01 11:26:05;;;;;;;9.10;1.90;;;15.40;99.90;;;;;;5061075;28;20047;-59
2023/04/01 11:29:07;;;;;;;6.82;2.20;;;15.30;99.90;;;;;;5059004;28;20520;-60
2023/04/01 11:31:47;;;;;;;9.75;1.63;;;15.30;99.90;;;;;;5063032;28;20108;-60
2023/04/01 11:34:33;;;;;;;14.57;2.70;;;15.20;99.90;;;;;;5048644;28;20300;-60
2023/04/01 11:37:16;;;;;;;8.80;1.98;;;15.10;99.90;;;;;;5049727;28;20063;-59
2023/04/01 11:40:05;;;;;;;9.50;1.73;;;15.10;99.90;;;;;;5056538;28;20025;-59
2023/04/01 11:42:57;;;;;;;5.28;1.55;;;15.10;99.90;;;;;;5053546;28;20386;-59
2023/04/01 11:45:42;;;;;;;5.38;1.40;;;15.10;99.90;;;;;;5061573;28;20063;-59
2023/04/01 11:48:44;;;;;;;5.88;1.48;;;15.10;99.90;;;;;;5063929;28;20021;-60
2023/04/01 11:51:19;;;;;;;5.65;1.63;;;15.20;99.90;;;;;;5060278;28;20116;-60
2023/04/01 11:54:00;;;;;;;4.95;1.67;;;15.10;99.90;;;;;;5059631;28;20024;-60
2023/04/01 11:56:38;;;;;;;11.18;1.58;;;15.10;99.90;;;;;;5070239;28;20017;-61
2023/04/01 11:59:28;;;;;;;8.60;1.38;;;15.10;99.90;;;;;;5063928;28;20552;-59
2023/04/01 12:02:42;;;;;;;3.53;1.67;;;15.10;99.90;;;;;;5048889;28;20124;-61
2023/04/01 12:05:23;;;;;;;6.90;1.45;;;15.00;99.90;;;;;;4978168;28;20046;-60
2023/04/01 12:07:57;;;;;;;5.00;1.20;;;15.00;99.90;;;;;;5048101;28;20067;-60
2023/04/01 12:10:42;;;;;;;3.70;1.30;;;15.00;99.90;;;;;;5062335;28;20071;-62
2023/04/01 12:13:32;;;;;;;4.72;1.45;;;15.10;99.90;;;;;;5049604;28;20021;-59
2023/04/01 12:16:47;;;;;;;6.28;1.65;;;15.10;99.90;;;;;;5051566;28;20036;-62
2023/04/01 12:19:40;;;;;;;4.30;1.27;;;15.10;99.90;;;;;;5046033;28;20115;-60
2023/04/01 12:22:35;;;;;;;3.33;1.02;;;15.10;99.90;;;;;;5063827;28;20765;-61
2023/04/01 12:25:23;;;;;;;6.05;0.95;;;15.10;99.90;;;;;;5053203;28;20468;-63
2023/04/01 12:28:23;;;;;;;5.07;1.67;;;15.20;99.90;;;;;;5059826;28;20032;-61
2023/04/01 12:31:11;;;;;;;3.45;1.05;;;15.20;99.90;;;;;;5062219;28;20043;-59
2023/04/01 12:33:52;;;;;;;3.35;0.90;;;15.20;99.90;;;;;;5051023;28;20477;-60
2023/04/01 12:36:29;;;;;;;4.70;1.02;;;15.30;99.90;;;;;;5051576;28;20032;-60
2023/04/01 12:39:22;;;;;;;2.35;1.13;;;15.30;99.90;;;;;;5049916;28;20077;-62
2023/04/01 12:41:56;;;;;;;4.03;1.60;;;15.30;99.90;;;;;;5063588;28;20373;-60
2023/04/01 12:45:01;;;;;;;3.28;1.10;;;15.30;99.90;;;;;;5050079;28;20124;-60
2023/04/01 12:47:38;;;;;;;2.60;1.30;;;15.20;99.90;;;;;;5047553;28;20040;-59
2023/04/01 12:50:31;;;;;;;3.55;1.27;;;15.10;99.90;;;;;;5066297;28;20477;-60
2023/04/01 12:53:35;;;;;;;4.53;1.50;;;15.10;99.90;;;;;;5048483;28;20083;-60
2023/04/01 12:56:45;;;;;;;4.20;1.10;;;15.10;99.90;;;;;;5051513;28;20028;-59
2023/04/01 12:59:22;;;;;;;3.95;1.15;;;15.10;99.90;;;;;;4993314;28;20060;-59
2023/04/01 13:02:13;;;;;;;5.10;1.20;;;15.10;99.90;;;;;;5055843;28;20546;-60
2023/04/01 13:04:57;;;;;;;4.78;1.20;;;15.00;99.90;;;;;;5065026;28;20049;-62
2023/04/01 13:07:51;;;;;;;1.80;0.98;;;15.00;99.90;;;;;;5069605;28;20474;-58
2023/04/01 13:10:40;;;;;;;3.53;1.10;;;15.00;99.90;;;;;;5063001;28;20470;-60
2023/04/01 13:13:51;;;;;;;7.85;1.05;;;15.00;99.90;;;;;;5066221;28;20032;-61
2023/04/01 13:16:24;;;;;;;2.15;0.82;;;15.00;99.90;;;;;;5025189;28;20509;-59
2023/04/01 13:18:52;;;;;;;0.98;0.60;;;15.00;99.90;;;;;;5052189;28;20029;-59
2023/04/01 13:21:32;;;;;;;3.10;1.40;;;15.00;99.90;;;;;;5063414;28;20025;-60
2023/04/01 13:24:05;;;;;;;2.63;1.08;;;14.90;99.90;;;;;;5051985;28;20057;-60
2023/04/01 13:27:00;;;;;;;5.68;1.15;;;14.90;99.90;;;;;;5059066;28;20037;-59
2023/04/01 13:29:35;;;;;;;7.22;1.20;;;14.90;99.90;;;;;;5051607;28;20032;-60
2023/04/01 13:32:29;;;;;;;6.22;1.08;;;14.90;99.90;;;;;;5055254;28;20024;-60
2023/04/01 13:35:23;;;;;;;1.38;0.93;;;14.80;99.90;;;;;;5054327;28;20029;-60
2023/04/01 13:38:00;;;;;;;5.03;0.90;;;14.80;99.90;;;;;;5057343;28;20024;-59
2023/04/01 13:40:30;;;;;;;2.33;1.00;;;14.70;99.90;;;;;;5055063;28;20021;-59
2023/04/01 13:43:13;;;;;;;5.93;1.00;;;14.70;99.90;;;;;;5051395;28;20040;-59
2023/04/01 13:45:59;;;;;;;5.03;1.10;;;14.70;99.90;;;;;;5072290;28;20165;-59
2023/04/01 13:48:53;;;;;;;4.82;1.73;;;14.60;99.90;;;;;;5061875;28;20020;-61
2023/04/01 13:51:33;;;;;;;1.80;1.00;;;14.60;99.90;;;;;;5067352;28;20021;-60